Terminal Aerodrome Forecast
Issued by NWS

Home | Current Version | Previous Version | Text Only | Print | Product List | Glossary On
Versions: 1 2 3 4 5 6 7 8 9 10 11 12 13 14 15 16 17 18 19 20 21 22 23 24 25 26 27 28 29 30 31 32 33 34 35 36 37 38 39 40 41 42 43 44 45 46 47 48 49 50
852
FTUS43 KDMX 172335
TAFMCW
TAF
KMCW 172335Z 1800/1824 08004KT 1 1/2SM BR OVC002
     FM180400 36008KT 1/2SM FG OVC002
     FM180600 35012G18KT P6SM OVC003
     FM180800 35016G24KT P6SM -RA OVC004
     FM181000 35017G25KT P6SM -RASN OVC006
     FM181200 34017G25KT P6SM OVC006
     FM181500 33018G24KT P6SM BKN035
     FM181700 33019G27KT P6SM SCT050=

USA.gov is the U.S. government's official web portal to all federal, state and local government web resources and services.